OICK  Khoram Abad Airport

Add Bookmark

Iran

Status IATA
Operational KHD
Latitude Longitude
33° 26' 7" N 48° 16' 58" E
33.435398 48.282902
Local (DST + 5) UTC (GMT + 4)
Sep 24, 2014 07:56 Sep 24, 2014 04:26
Sunrise-Sunset Local UTC
Begin Civil Twilight 05:40 02:10
Sunrise 06:05 02:35
Sunset 06:12 14:42
End Civil Twilight 06:37 15:07

Current Weather

METAR Observed VFR
OICK 240400Z 13004KT CAVOK 17/01 Q1018 Wed, Sep 24, 2014 @ 04:00 UTC
(26 Minutes ago)
Visual Flight Rules
Wind Visibility Clouds Conditions
130° at 4 knots (7 kph) 10 km or more
  • Clear skies
  • No significant weather
Temperatures Readings Precipitation
Current Temp 17°C (63°F)
Dewpoint 1°C (34°F)
Humidity 34%
Altimeter 30.06"Hg
Sea Level Pressure 1018mb
Field Elevation 3789.37'
None Recorded

Additional weather within a 92.6km radius of OICK

Map ICAO Location
OICJ 67.2km N (040°)

24 Hour Weather History

Loading
-

24 Hour Weather Graphs

Loading
-

CheckWX.com is intended as a tool to help pilots better visualize weather data. It is not intended as a substitute for an official weather briefing obtained from a Flight Service Station. CheckWX.com does not meet the FAA requirements for an official pre-flight weather briefing. Therefore, it's important that pilots still call and obtain an official FSS pre-flight weather briefing.